KUMP/UMP METAR and TAF weather

Enter ICAO airport designator
Station Type Date Time Source
KUMP METAR 2022/10/01 07:15 UTC NOAA

KUMP 010715Z AUTO 00000KT 10SM CLR 09/08 A3010 RMK AO2 T00880075


Station Type Date Time Source
KUMP Decoded METAR 2022/10/01 07:15 UTC NOAA

Station name not available
Oct 01, 2022 - 03:15 AM EDT / 2022.10.01 0715 UTC
Wind: Calm:0
Visibility: 10 mile(s):0
Sky conditions: clear
Temperature: 47.8 F (8.8 C)
Dew Point: 45.5 F (7.5 C)
Relative Humidity: 91%
Pressure (altimeter): 30.1 in. Hg (1019 hPa)
ob: KUMP 010715Z AUTO 00000KT 10SM CLR 09/08 A3010 RMK AO2 T00880075
cycle: 7

Station Type Date Time Source
KUMP TAF UTC NOAA

Error!

Example: see airport list